Time;durP1;ratioP1;P1;durP2;ratioP2;P2;SDS_P1;SDS_P2;PMS_P1;PMS_P2;Temp;Humidity;BMP_temperature;BMP_pressure;BME280_temperature;BME280_humidity;BME280_pressure;Samples;Min_cycle;Max_cycle;Signal;HPM_P1;HPM_P2
2023/07/27 00:38:37;;;;;;;3.10;2.40;;;;;;;13.71;80.58;99939.53;223098;1236;71260;-72
2023/07/27 00:43:40;;;;;;;4.90;3.60;;;;;;;13.69;80.51;99945.82;221307;1240;59890;-73
2023/07/27 00:54:35;;;;;;;;;;;;;;;;;;;;;
2023/07/27 00:59:51;;;;;;;3.30;3.00;;;;;;;13.62;80.68;99961.73;220562;1238;72850;-72
2023/07/27 01:04:43;;;;;;;3.10;2.80;;;;;;;13.59;80.72;99968.20;220704;1241;72897;-73
2023/07/27 01:09:35;;;;;;;4.00;3.00;;;;;;;13.57;80.74;99971.86;220679;1241;59614;-73
2023/07/27 01:15:02;;;;;;;4.50;3.10;;;;;;;13.56;80.86;99975.17;220820;1241;59623;-73
2023/07/27 01:19:57;;;;;;;3.40;3.10;;;;;;;13.53;80.86;99976.25;220823;1241;59648;-73
2023/07/27 01:25:07;;;;;;;3.40;2.80;;;;;;;13.51;81.10;99979.91;221393;1237;66913;-73
2023/07/27 01:30:24;;;;;;;3.70;3.40;;;;;;;13.48;81.14;99980.27;221694;1235;59734;-72
2023/07/27 01:35:19;;;;;;;3.90;3.10;;;;;;;13.48;81.31;99984.80;221622;1235;72177;-73
2023/07/27 01:40:13;;;;;;;3.40;3.10;;;;;;;13.46;81.24;99981.70;221645;1235;72634;-73
2023/07/27 01:45:06;;;;;;;5.50;3.10;;;;;;;13.45;81.36;99971.24;221705;1233;59745;-72
2023/07/27 01:49:59;;;;;;;4.80;3.20;;;;;;;13.45;81.43;99965.33;221689;1232;59748;-73
2023/07/27 01:54:51;;;;;;;4.80;3.70;;;;;;;13.47;81.47;99966.02;221679;1235;60332;-72
2023/07/27 01:59:45;;;;;;;3.10;2.80;;;;;;;13.46;81.48;99962.70;221692;1236;59706;-72
2023/07/27 02:04:37;;;;;;;3.90;3.50;;;;;;;13.47;81.70;99965.66;221521;1237;73544;-73
2023/07/27 02:09:29;;;;;;;4.10;2.50;;;;;;;13.47;81.44;99970.89;221744;1235;59704;-73
2023/07/27 02:14:24;;;;;;;4.10;2.80;;;;;;;13.42;81.23;99968.66;221718;1233;59600;-73
2023/07/27 02:19:18;;;;;;;2.60;2.40;;;;;;;13.37;81.15;99972.34;221526;1234;59799;-73
2023/07/27 02:24:13;;;;;;;5.20;3.40;;;;;;;13.31;81.33;99966.96;221464;1235;71580;-73
2023/07/27 02:29:05;;;;;;;4.10;2.70;;;;;;;13.30;81.40;99979.84;221643;1235;72711;-73
2023/07/27 02:33:56;;;;;;;3.30;3.00;;;;;;;13.30;81.44;99989.25;221701;1235;59662;-72
2023/07/27 02:38:48;;;;;;;5.60;2.90;;;;;;;13.29;81.45;99997.08;221693;1235;59756;-73
2023/07/27 02:43:42;;;;;;;3.80;3.10;;;;;;;13.29;81.56;99995.33;221745;1236;59704;-73
2023/07/27 02:48:35;;;;;;;3.80;3.30;;;;;;;13.28;81.56;99989.60;221738;1236;65965;-73
2023/07/27 02:53:27;;;;;;;4.50;3.70;;;;;;;13.26;81.63;99981.77;221767;1234;60055;-73
2023/07/27 02:58:19;;;;;;;3.80;3.50;;;;;;;13.28;81.88;99973.94;221611;1235;60513;-73
2023/07/27 03:03:11;;;;;;;5.00;3.20;;;;;;;13.30;81.91;99975.50;221817;1232;60486;-73
2023/07/27 03:08:03;;;;;;;4.10;3.70;;;;;;;13.32;81.93;99981.78;221760;1235;73635;-73
2023/07/27 03:12:57;;;;;;;5.30;3.70;;;;;;;13.29;81.61;99982.63;221678;1235;72470;-73
2023/07/27 03:17:48;;;;;;;3.90;3.50;;;;;;;13.24;81.55;99986.66;221776;1234;60448;-73
2023/07/27 03:22:40;;;;;;;4.30;3.90;;;;;;;13.22;81.83;99993.12;221559;1233;60439;-73
2023/07/27 03:27:35;;;;;;;5.40;4.10;;;;;;;13.25;81.97;99992.56;221658;1235;60394;-74
2023/07/27 03:32:52;;;;;;;4.40;4.00;;;;;;;13.30;82.07;99994.13;221720;1234;66578;-73
2023/07/27 03:38:32;;;;;;;5.60;4.30;;;;;;;13.35;82.01;99989.24;221602;1233;60413;-73
2023/07/27 03:43:54;;;;;;;4.60;4.00;;;;;;;13.38;81.77;99988.70;219834;1246;72918;-73
2023/07/27 04:07:55;;;;;;;;;;;;;;;;;;;;;
2023/07/27 04:13:54;;;;;;;5.20;4.70;;;;;;;13.55;82.36;100002.70;220187;1241;74545;-73
2023/07/27 04:20:26;;;;;;;;;;;;;;;;;;;;;
2023/07/27 04:31:38;;;;;;;4.70;4.30;;;;;;;13.81;82.57;100008.27;221574;1235;65927;-73
2023/07/27 04:37:36;;;;;;;4.30;3.90;;;;;;;13.90;82.20;100003.31;221087;1236;60433;-73
2023/07/27 04:43:04;;;;;;;8.10;4.30;;;;;;;13.98;81.87;100005.16;221592;1234;73679;-74
2023/07/27 04:48:23;;;;;;;3.90;3.60;;;;;;;13.98;81.71;100011.09;221359;1236;72277;-73
2023/07/27 04:53:26;;;;;;;4.40;3.20;;;;;;;13.99;81.43;100014.73;221570;1233;215118;-73
2023/07/27 04:59:10;;;;;;;3.60;3.30;;;;;;;13.99;81.42;100012.13;221640;1234;65512;-73
2023/07/27 05:04:53;;;;;;;4.80;4.30;;;;;;;14.02;81.60;100014.01;221599;1233;60443;-74
2023/07/27 05:09:52;;;;;;;4.20;3.30;;;;;;;14.08;81.70;100003.85;221582;1234;72719;-73
2023/07/27 05:20:53;;;;;;;2.90;2.70;;;;;;;14.00;81.29;99998.17;221170;1236;60478;-73
2023/07/27 05:26:06;;;;;;;5.80;3.20;;;;;;;14.04;81.42;99999.18;221664;1233;67236;-73
2023/07/27 06:07:33;;;;;;;2.70;2.50;;;;;;;14.85;80.68;99996.64;220337;1241;73628;-73
2023/07/27 06:13:02;;;;;;;5.20;3.60;;;;;;;15.14;80.02;99997.14;219572;1244;73178;-73
2023/07/27 06:18:14;;;;;;;4.00;3.60;;;;;;;15.32;79.64;99999.89;219649;1248;60696;-73
2023/07/27 06:23:05;;;;;;;4.80;4.10;;;;;;;15.84;78.80;100005.23;219766;1245;66905;-74
2023/07/27 06:27:57;;;;;;;5.50;5.00;;;;;;;16.77;76.96;100003.95;219520;1244;60536;-73
2023/07/27 06:32:51;;;;;;;9.60;5.80;;;;;;;16.71;76.63;100009.33;219484;1244;60463;-74
2023/07/27 06:37:42;;;;;;;6.90;6.20;;;;;;;16.64;76.54;100013.98;220323;1237;60394;-73
2023/07/27 06:42:34;;;;;;;6.30;5.70;;;;;;;17.93;74.57;100009.61;220621;1238;60557;-74
2023/07/27 06:47:33;;;;;;;6.70;5.30;;;;;;;18.45;72.94;100007.82;220771;1234;63946;-74
2023/07/27 06:52:35;;;;;;;5.40;4.70;;;;;;;18.83;72.00;100007.31;221615;1236;60812;-74
2023/07/27 06:57:28;;;;;;;7.30;4.20;;;;;;;19.36;71.21;100004.90;221464;1234;68101;-75
2023/07/27 07:02:20;;;;;;;4.50;4.20;;;;;;;19.58;70.41;100012.66;221632;1234;60448;-74
2023/07/27 07:07:23;;;;;;;4.80;4.30;;;;;;;19.38;69.47;100015.20;221476;1235;73641;-74
2023/07/27 07:12:35;;;;;;;5.70;4.60;;;;;;;20.04;68.35;100012.41;221319;1234;73895;-75
2023/07/27 07:24:32;;;;;;;3.80;3.10;;;;;;;21.47;64.58;100013.11;220343;1238;67287;-74
2023/07/27 07:30:23;;;;;;;3.80;3.00;;;;;;;22.41;61.75;100014.59;220367;1239;60575;-74
2023/07/27 07:35:46;;;;;;;3.50;3.30;;;;;;;22.18;62.06;100012.57;220375;1240;75164;-74
2023/07/27 07:40:37;;;;;;;3.80;2.70;;;;;;;22.42;61.34;100011.55;220491;1242;71027;-74
2023/07/27 07:46:01;;;;;;;5.90;3.00;;;;;;;23.00;61.33;100011.64;220528;1240;60731;-76
2023/07/27 07:50:53;;;;;;;3.20;2.80;;;;;;;23.71;59.57;100010.56;220467;1238;65677;-74
2023/07/27 07:55:45;;;;;;;2.80;2.50;;;;;;;25.17;56.82;100004.50;220561;1238;61067;-75
2023/07/27 08:00:36;;;;;;;4.40;2.60;;;;;;;27.49;52.89;99994.35;221309;1233;60434;-74
2023/07/27 08:05:27;;;;;;;4.30;2.50;;;;;;;26.64;51.80;100000.20;221508;1233;60383;-74
2023/07/27 08:10:19;;;;;;;3.70;2.70;;;;;;;27.56;50.33;99989.08;221386;1236;60414;-75
2023/07/27 08:15:10;;;;;;;4.50;2.60;;;;;;;27.01;50.46;99997.42;221585;1234;60547;-75
2023/07/27 08:20:03;;;;;;;2.90;2.30;;;;;;;26.15;50.31;100003.27;221511;1234;72758;-75
2023/07/27 08:24:54;;;;;;;3.40;2.30;;;;;;;24.86;52.06;99997.19;221518;1233;60502;-75
2023/07/27 08:30:07;;;;;;;3.20;2.50;;;;;;;23.88;52.76;99996.91;221696;1236;60534;-75
2023/07/27 08:34:58;;;;;;;3.00;2.40;;;;;;;23.42;53.24;99994.89;221829;1236;60432;-75
2023/07/27 08:39:50;;;;;;;4.10;2.50;;;;;;;24.26;51.14;99989.45;221507;1236;60400;-75
2023/07/27 08:44:45;;;;;;;3.00;2.20;;;;;;;26.78;47.71;99981.54;221556;1233;60484;-75
2023/07/27 08:49:38;;;;;;;3.40;2.60;;;;;;;26.26;48.91;99990.23;221543;1233;60449;-74
2023/07/27 08:54:30;;;;;;;3.40;1.90;;;;;;;24.91;49.69;99988.56;221613;1234;60455;-74
2023/07/27 08:59:25;;;;;;;2.70;2.30;;;;;;;23.82;51.00;99992.95;221671;1232;60528;-75
2023/07/27 09:10:42;;;;;;;4.20;2.10;;;;;;;22.74;52.13;99983.83;220128;1241;65656;-74
2023/07/27 09:15:35;;;;;;;3.40;2.10;;;;;;;22.39;52.36;99986.45;219980;1245;60507;-74
2023/07/27 09:20:28;;;;;;;5.30;2.30;;;;;;;22.13;52.82;99997.95;219968;1242;73658;-75
2023/07/27 09:25:26;;;;;;;3.60;2.00;;;;;;;21.92;52.55;99998.98;219801;1242;71760;-73
2023/07/27 09:30:28;;;;;;;2.60;2.00;;;;;;;21.94;52.39;99996.10;219942;1241;60929;-75
2023/07/27 09:35:32;;;;;;;5.00;2.30;;;;;;;21.72;52.31;99993.80;219907;1245;60953;-74
2023/07/27 09:40:32;;;;;;;1.90;1.80;;;;;;;22.74;50.51;99986.58;219818;1242;60424;-73
2023/07/27 09:45:24;;;;;;;5.10;2.30;;;;;;;24.73;47.78;99981.38;220446;1231;73953;-73
2023/07/27 09:50:16;;;;;;;3.60;1.90;;;;;;;26.57;44.43;99978.54;221794;1232;60544;-73
2023/07/27 09:55:07;;;;;;;2.30;2.10;;;;;;;29.52;40.42;99977.16;221756;1232;60380;-73
2023/07/27 10:00:04;;;;;;;2.70;2.30;;;;;;;28.66;40.55;99979.15;221728;1232;73530;-73
2023/07/27 10:05:04;;;;;;;2.00;1.90;;;;;;;28.93;40.26;99978.05;221674;1235;60510;-73
2023/07/27 10:10:34;;;;;;;2.30;2.10;;;;;;;31.61;38.50;99968.05;221654;1232;61007;-74
2023/07/27 10:15:28;;;;;;;2.90;1.90;;;;;;;30.02;37.94;99972.38;221289;1232;60469;-75
2023/07/27 10:20:31;;;;;;;2.50;1.80;;;;;;;28.29;38.65;99970.86;221832;1236;73758;-74
2023/07/27 10:25:23;;;;;;;2.80;1.60;;;;;;;30.53;37.19;99958.22;221646;1232;72382;-74
2023/07/27 10:30:14;;;;;;;2.00;1.70;;;;;;;32.42;35.45;99949.97;221716;1234;60482;-74
2023/07/27 10:35:09;;;;;;;2.50;2.10;;;;;;;31.89;34.93;99952.98;221484;1235;60439;-74
2023/07/27 10:40:02;;;;;;;3.80;1.90;;;;;;;28.50;36.70;99967.61;221713;1235;60442;-75
2023/07/27 10:44:55;;;;;;;3.70;2.10;;;;;;;28.36;37.88;99959.27;221614;1232;60425;-74
2023/07/27 10:49:48;;;;;;;3.90;2.00;;;;;;;30.53;35.94;99948.60;221586;1232;60520;-74
2023/07/27 10:54:41;;;;;;;3.00;1.80;;;;;;;31.15;35.28;99949.05;221771;1231;60535;-74
2023/07/27 10:59:36;;;;;;;1.90;1.50;;;;;;;28.62;35.98;99942.68;221845;1232;60293;-73
2023/07/27 11:04:29;;;;;;;1.90;1.70;;;;;;;28.08;36.78;99938.91;221713;1232;60386;-73
2023/07/27 11:09:21;;;;;;;1.50;1.30;;;;;;;27.90;37.38;99935.72;221695;1231;61298;-73
2023/07/27 11:14:13;;;;;;;2.00;1.70;;;;;;;26.03;38.43;99940.25;221757;1234;60516;-73
2023/07/27 11:19:07;;;;;;;1.60;1.40;;;;;;;26.44;38.80;99932.66;221724;1232;60346;-73
2023/07/27 11:23:59;;;;;;;1.90;1.80;;;;;;;26.17;39.78;99930.02;221771;1232;60462;-73
2023/07/27 11:28:50;;;;;;;2.10;1.60;;;;;;;26.55;40.19;99928.07;221742;1235;60471;-73
2023/07/27 11:33:42;;;;;;;1.60;1.50;;;;;;;26.71;39.30;99924.06;221777;1234;65838;-73
2023/07/27 11:38:34;;;;;;;2.40;1.90;;;;;;;26.18;39.16;99923.73;221640;1232;60526;-74
2023/07/27 11:43:26;;;;;;;2.00;1.70;;;;;;;25.30;39.26;99922.98;221703;1235;61004;-74
2023/07/27 11:48:18;;;;;;;1.80;1.60;;;;;;;25.65;39.41;99917.43;221713;1232;60449;-74
2023/07/27 11:53:12;;;;;;;2.20;1.70;;;;;;;26.09;39.44;99914.69;221699;1235;60460;-74
2023/07/27 11:58:16;;;;;;;2.70;1.50;;;;;;;26.32;38.38;99909.59;221561;1236;73671;-75
2023/07/27 12:09:35;;;;;;;;;;;;;;;;;;;;;
2023/07/27 12:21:43;;;;;;;1.20;1.10;;;;;;;26.81;37.10;99901.97;220898;1236;75142;-73
2023/07/27 12:26:36;;;;;;;1.10;1.00;;;;;;;26.06;36.90;99901.70;220856;1237;60522;-74
2023/07/27 12:31:47;;;;;;;1.80;1.70;;;;;;;25.96;37.52;99900.02;220760;1239;60399;-73
2023/07/27 12:43:23;;;;;;;1.10;1.10;;;;;;;26.24;36.47;99883.58;218491;1244;60630;-74
2023/07/27 12:48:21;;;;;;;1.90;1.30;;;;;;;25.07;37.03;99890.05;219682;1245;74286;-74
2023/07/27 12:53:14;;;;;;;1.20;1.10;;;;;;;24.80;37.98;99887.14;219552;1247;71446;-74
2023/07/27 12:58:05;;;;;;;1.60;1.50;;;;;;;24.31;38.03;99884.77;219538;1247;60600;-74
2023/07/27 13:02:57;;;;;;;1.30;1.10;;;;;;;24.33;38.80;99885.58;219857;1244;60530;-74
2023/07/27 13:07:49;;;;;;;2.40;1.30;;;;;;;25.23;38.66;99886.33;219579;1244;60455;-74
2023/07/27 13:12:41;;;;;;;1.40;1.20;;;;;;;25.46;37.75;99885.90;220047;1240;60768;-75
2023/07/27 13:17:33;;;;;;;1.70;0.80;;;;;;;24.79;38.33;99890.21;220978;1234;60451;-74
2023/07/27 13:22:25;;;;;;;1.60;1.30;;;;;;;24.26;38.72;99882.75;221537;1232;66888;-74
2023/07/27 13:27:20;;;;;;;1.50;1.20;;;;;;;24.22;39.07;99882.05;221758;1232;60522;-74
2023/07/27 13:32:12;;;;;;;5.20;1.40;;;;;;;23.84;39.21;99878.73;221782;1233;60506;-73
2023/07/27 13:37:03;;;;;;;1.10;1.00;;;;;;;24.32;39.64;99874.63;221725;1232;59197;-74
2023/07/27 13:41:55;;;;;;;1.30;1.20;;;;;;;24.66;38.43;99874.59;221722;1232;72802;-74
2023/07/27 13:46:46;;;;;;;4.10;1.30;;;;;;;24.88;39.21;99864.71;221753;1232;60413;-75
2023/07/27 13:51:37;;;;;;;2.00;1.30;;;;;;;24.67;38.66;99871.71;221815;1235;60301;-74
2023/07/27 13:56:30;;;;;;;3.20;1.10;;;;;;;24.29;39.24;99868.77;221732;1235;72452;-74
2023/07/27 14:01:21;;;;;;;1.80;1.40;;;;;;;23.80;39.57;99867.74;221771;1235;60467;-75
2023/07/27 14:06:12;;;;;;;1.20;1.00;;;;;;;23.48;39.63;99866.73;221541;1232;60386;-74
2023/07/27 14:11:06;;;;;;;2.30;1.40;;;;;;;24.17;40.94;99857.38;221503;1232;59943;-73
2023/07/27 14:15:58;;;;;;;1.30;1.20;;;;;;;25.09;39.90;99854.84;221793;1232;60515;-74
2023/07/27 14:20:49;;;;;;;1.30;1.10;;;;;;;25.48;39.59;99850.83;221686;1232;60441;-74
2023/07/27 14:25:41;;;;;;;3.10;1.60;;;;;;;25.89;38.71;99848.95;221763;1234;60452;-75
2023/07/27 14:30:32;;;;;;;1.50;1.40;;;;;;;26.05;38.32;99853.02;221722;1234;60384;-74
2023/07/27 14:35:23;;;;;;;1.00;1.00;;;;;;;25.55;38.24;99851.88;221369;1237;60467;-74
2023/07/27 14:47:35;;;;;;;1.40;1.30;;;;;;;25.18;38.54;99842.97;221488;1233;60841;-74
2023/07/27 14:52:26;;;;;;;1.30;1.20;;;;;;;25.23;38.27;99843.61;221705;1234;65796;-74
2023/07/27 14:57:18;;;;;;;1.60;1.20;;;;;;;24.70;37.84;99843.03;221786;1232;60324;-75
2023/07/27 15:02:09;;;;;;;1.10;1.10;;;;;;;24.57;38.55;99845.84;221505;1232;60426;-74
2023/07/27 15:07:14;;;;;;;1.50;1.40;;;;;;;25.17;38.11;99841.96;221534;1235;60747;-74
2023/07/27 15:13:26;;;;;;;;;;;;;;;;;;;;;
2023/07/27 15:18:19;;;;;;;2.40;1.30;;;;;;;23.88;37.83;99841.88;221547;1234;74541;-73
2023/07/27 15:29:15;;;;;;;1.40;1.30;;;;;;;23.26;39.16;99852.98;220448;1240;66801;-74
2023/07/27 15:34:06;;;;;;;2.90;2.00;;;;;;;23.26;39.36;99850.83;220549;1240;60456;-75
2023/07/27 15:59:00;;;;;;;4.20;1.50;;;;;;;24.09;39.34;99828.38;218367;1254;72886;-76
2023/07/27 16:03:59;;;;;;;4.10;1.40;;;;;;;24.18;38.97;99829.16;218650;1249;60422;-76
2023/07/27 18:22:44;;;;;;;3.60;2.00;;;;;;;18.97;51.99;99824.80;215115;1266;60711;-74
2023/07/27 18:34:19;;;;;;;3.30;2.30;;;;;;;18.54;52.57;99821.20;216957;1256;73203;-73
2023/07/27 18:39:11;;;;;;;3.90;2.10;;;;;;;18.37;52.56;99822.41;217422;1254;60611;-74
2023/07/27 18:44:06;;;;;;;2.30;2.10;;;;;;;18.15;53.00;99824.63;217737;1249;61052;-73
2023/07/27 18:48:57;;;;;;;2.40;2.20;;;;;;;17.95;53.36;99820.27;218943;1248;60972;-73
2023/07/27 18:53:50;;;;;;;3.00;2.30;;;;;;;17.75;53.74;99821.30;218985;1248;75079;-73
2023/07/27 18:58:42;;;;;;;2.10;1.90;;;;;;;17.62;54.50;99824.29;219719;1241;61202;-73
2023/07/27 19:03:37;;;;;;;4.30;2.30;;;;;;;17.46;54.89;99824.34;220030;1241;60520;-74
2023/07/27 19:08:29;;;;;;;3.40;1.80;;;;;;;17.32;55.45;99827.33;220627;1232;60818;-74
2023/07/27 19:13:21;;;;;;;3.60;2.40;;;;;;;17.17;55.99;99832.75;221573;1232;60500;-73
2023/07/27 19:18:13;;;;;;;2.60;2.40;;;;;;;17.05;56.40;99833.57;221834;1236;60432;-74
2023/07/27 19:23:04;;;;;;;2.60;2.40;;;;;;;16.94;56.64;99839.62;221749;1232;60515;-74
2023/07/27 19:27:56;;;;;;;2.80;2.50;;;;;;;16.81;57.11;99834.81;221742;1236;60406;-74
2023/07/27 19:32:47;;;;;;;3.00;2.70;;;;;;;16.67;57.41;99833.17;221720;1232;60551;-73
2023/07/27 19:37:39;;;;;;;5.50;2.80;;;;;;;16.55;57.78;99832.75;221757;1232;73797;-73
2023/07/27 19:42:33;;;;;;;3.20;2.70;;;;;;;16.41;58.03;99828.67;221645;1232;60412;-73
2023/07/27 19:47:25;;;;;;;2.40;2.20;;;;;;;16.27;58.42;99825.13;221827;1236;60442;-73
2023/07/27 19:52:17;;;;;;;3.50;2.50;;;;;;;16.14;58.60;99824.51;221714;1232;60934;-73
2023/07/27 19:57:08;;;;;;;4.50;2.90;;;;;;;16.02;59.04;99822.48;221878;1237;60440;-74
2023/07/27 20:02:00;;;;;;;3.20;2.90;;;;;;;15.85;59.20;99825.60;221795;1232;66848;-73
2023/07/27 20:06:52;;;;;;;3.20;2.90;;;;;;;15.71;59.61;99825.48;221498;1234;60436;-73
2023/07/27 20:11:44;;;;;;;4.80;3.10;;;;;;;15.59;59.82;99828.64;221830;1232;60430;-74
2023/07/27 20:16:35;;;;;;;3.50;3.10;;;;;;;15.47;60.14;99829.92;221825;1236;60656;-73
2023/07/27 20:21:28;;;;;;;5.30;3.20;;;;;;;15.38;60.55;99831.46;221718;1232;60508;-73
2023/07/27 20:26:19;;;;;;;4.00;3.10;;;;;;;15.26;60.78;99827.46;221776;1232;60572;-74
2023/07/27 20:31:11;;;;;;;4.00;3.20;;;;;;;15.15;61.09;99822.94;221857;1232;60441;-74
2023/07/27 20:36:03;;;;;;;3.60;2.80;;;;;;;15.07;61.43;99824.64;221862;1232;71716;-72
2023/07/27 20:41:14;;;;;;;4.50;3.40;;;;;;;14.99;61.74;99826.50;221604;1236;60531;-73
2023/07/27 20:46:05;;;;;;;4.00;3.20;;;;;;;14.87;62.08;99824.57;221838;1232;66779;-73
2023/07/27 20:51:05;;;;;;;3.80;3.30;;;;;;;14.77;62.46;99821.77;221899;1236;60424;-73
2023/07/27 20:55:57;;;;;;;3.30;3.00;;;;;;;14.70;62.71;99821.16;221572;1236;72854;-73
2023/07/27 21:00:48;;;;;;;4.00;3.30;;;;;;;14.62;62.80;99819.19;221827;1232;60445;-73
2023/07/27 21:05:40;;;;;;;4.00;3.60;;;;;;;14.51;63.12;99819.65;221874;1232;60509;-73
2023/07/27 21:10:32;;;;;;;4.20;3.80;;;;;;;14.39;63.30;99819.11;221848;1232;71413;-73
2023/07/27 21:15:25;;;;;;;4.50;4.00;;;;;;;14.31;63.59;99818.88;221900;1236;60788;-73
2023/07/27 21:20:17;;;;;;;3.80;3.50;;;;;;;14.19;63.78;99814.67;221923;1232;61024;-73
2023/07/27 21:25:09;;;;;;;4.50;4.10;;;;;;;14.13;64.12;99812.98;221859;1236;60525;-73
2023/07/27 21:30:00;;;;;;;6.40;4.10;;;;;;;14.05;64.18;99819.52;221755;1232;65460;-73
2023/07/27 21:34:52;;;;;;;5.90;4.40;;;;;;;13.98;64.61;99821.00;221841;1232;60413;-73
2023/07/27 21:39:44;;;;;;;7.20;4.40;;;;;;;13.91;64.77;99815.68;221784;1236;60509;-73
2023/07/27 21:44:36;;;;;;;4.40;4.00;;;;;;;13.83;64.99;99818.73;221757;1232;60577;-73
2023/07/27 21:49:28;;;;;;;5.00;4.50;;;;;;;13.76;65.15;99816.71;221656;1232;73900;-73
2023/07/27 21:54:19;;;;;;;7.50;4.80;;;;;;;13.68;65.24;99810.86;221729;1232;60510;-73
2023/07/27 21:59:11;;;;;;;5.80;4.40;;;;;;;13.58;65.54;99811.49;221841;1232;60538;-73
2023/07/27 22:04:03;;;;;;;5.20;4.60;;;;;;;13.49;65.72;99811.23;221707;1237;72716;-73
2023/07/27 22:08:54;;;;;;;4.90;3.90;;;;;;;13.45;66.04;99813.18;221796;1232;60419;-73
2023/07/27 22:13:46;;;;;;;5.20;4.50;;;;;;;13.43;66.24;99807.29;221733;1237;60449;-73
2023/07/27 22:18:38;;;;;;;5.90;4.60;;;;;;;13.41;66.36;99803.99;221471;1232;61271;-73
2023/07/27 22:23:30;;;;;;;5.80;4.00;;;;;;;13.42;66.66;99800.33;221644;1232;60446;-74
2023/07/27 22:28:21;;;;;;;5.60;3.80;;;;;;;13.45;66.63;99798.91;221638;1232;60487;-74
2023/07/27 22:33:14;;;;;;;4.80;4.40;;;;;;;13.46;66.75;99794.02;221663;1231;67980;-73
2023/07/27 22:38:06;;;;;;;4.70;4.20;;;;;;;13.45;66.84;99792.30;221762;1236;60433;-74
2023/07/27 22:42:58;;;;;;;5.80;5.10;;;;;;;13.44;66.95;99788.45;221695;1236;60461;-74
2023/07/27 22:47:49;;;;;;;7.30;4.30;;;;;;;13.42;67.03;99785.70;221675;1232;60510;-74
2023/07/27 22:52:41;;;;;;;4.50;3.90;;;;;;;13.41;67.23;99781.36;221722;1232;73537;-74
2023/07/27 22:57:33;;;;;;;6.00;4.50;;;;;;;13.43;67.33;99776.30;221665;1232;60547;-74
2023/07/27 23:02:24;;;;;;;7.60;4.20;;;;;;;13.40;67.37;99769.52;221818;1232;60428;-74
2023/07/27 23:07:16;;;;;;;7.80;5.10;;;;;;;13.44;67.69;99759.23;221661;1232;72261;-74
2023/07/27 23:12:08;;;;;;;5.80;5.20;;;;;;;13.46;67.66;99763.56;221820;1232;60492;-74
2023/07/27 23:17:00;;;;;;;6.30;5.00;;;;;;;13.45;67.67;99764.44;221698;1232;60455;-74
2023/07/27 23:21:52;;;;;;;5.90;4.70;;;;;;;13.44;67.86;99757.48;221700;1236;60374;-74
2023/07/27 23:26:43;;;;;;;4.60;4.00;;;;;;;13.41;68.00;99757.88;221827;1235;65738;-73
2023/07/27 23:31:35;;;;;;;6.80;5.00;;;;;;;13.40;68.17;99754.39;221836;1236;60538;-74
2023/07/27 23:36:27;;;;;;;5.20;4.10;;;;;;;13.44;68.39;99752.77;221701;1232;60403;-74
2023/07/27 23:41:18;;;;;;;5.10;4.10;;;;;;;13.43;68.31;99754.19;221705;1232;60406;-74
2023/07/27 23:46:10;;;;;;;7.70;4.90;;;;;;;13.38;68.46;99747.98;221747;1232;60535;-73
2023/07/27 23:51:02;;;;;;;5.30;4.10;;;;;;;13.40;68.68;99734.39;221738;1232;60445;-74
2023/07/27 23:55:53;;;;;;;4.80;4.40;;;;;;;13.41;68.78;99731.41;221729;1232;73606;-73
